KPWT METAR and TAF | Updated Today

KPWT METAR

Bremerton National Airport

Observation time: 32 min. ago

KPWT 200656Z AUTO 00000KT 10SM CLR 04/03 A3027 RMK AO2 SLP256 T00390028

Need help? Read our tutorial on how to read METARs or read the parsed version below.

Bremerton National Airport (KPWT) METAR

  • Weather conditions on Fri, 20 May 2022 06:56:00 +0000 (32 min. ago):
  • Present conditions: Dry
  • Clouds: Clear skies
  • Visibility: 16093 meters
  • Wind: Calm
  • Temperature: 4 celsius
  • Dew point: 3 celsius
  • Pressure: 30.27 inHg
  • Remarks: AO2 SLP256 T00390028


Useful to know...

KPWT TAF

Bremerton National Airport

KPWT 200528Z 2006/2106 VRB05KT P6SM BKN040 FM201200 00000KT P6SM OVC050 FM201700 03002KT P6SM BKN050
Observation time: 2:00 hr. ago
Need help? Read our tutorial on how to read TAFs or read the parsed version below.

Parsed version of TAF for Bremerton National Airport (KPWT)

  • From 20 May at 06:00 UTC, to day 21 of the month at 06:00 UTC
  • Clouds: Broken sky at 1219 meters
  • Wind: Variable at 5
  • From day 20 of the month at 12:00 UTC
  • Clouds: Overcast sky at 1524 meters
  • From day 20 of the month at 17:00 UTC
  • Clouds: Broken sky at 1524 meters
  • Wind: 30 degrees at 2